Time;durP1;ratioP1;P1;durP2;ratioP2;P2;SDS_P1;SDS_P2;PMS_P1;PMS_P2;Temp;Humidity;BMP_temperature;BMP_pressure;BME280_temperature;BME280_humidity;BME280_pressure;Samples;Min_cycle;Max_cycle;Signal;HPM_P1;HPM_P2
2021/07/21 00:01:03;;;;;;;1.27;1.10;;;27.20;73.90;;;;;;5102373;28;20035;-41
2021/07/21 00:03:29;;;;;;;1.60;1.07;;;27.20;73.90;;;;;;5104848;28;20035;-42
2021/07/21 00:05:55;;;;;;;1.40;1.30;;;27.20;73.90;;;;;;5106135;28;20032;-41
2021/07/21 00:08:21;;;;;;;1.37;1.27;;;27.20;73.90;;;;;;5105965;28;20040;-40
2021/07/21 00:10:49;;;;;;;2.15;1.20;;;27.20;73.90;;;;;;5106025;28;20036;-41
2021/07/21 00:13:30;;;;;;;1.52;1.00;;;27.20;73.90;;;;;;5106061;28;20043;-42
2021/07/21 00:18:37;;;;;;;0.75;0.75;;;27.20;73.90;;;;;;5105752;28;20039;-42
2021/07/21 00:21:03;;;;;;;1.10;1.00;;;27.20;74.00;;;;;;5105588;28;20065;-42
2021/07/21 00:23:30;;;;;;;1.05;0.80;;;27.20;74.00;;;;;;5087211;28;20087;-41
2021/07/21 00:25:57;;;;;;;1.65;0.90;;;27.20;74.80;;;;;;5105955;28;20054;-41
2021/07/21 00:28:23;;;;;;;1.00;0.80;;;27.20;74.10;;;;;;5105541;28;20054;-41
2021/07/21 00:30:49;;;;;;;0.90;0.90;;;27.10;74.00;;;;;;5087454;28;20099;-42
2021/07/21 00:33:15;;;;;;;0.77;0.77;;;27.10;74.00;;;;;;5105717;28;20028;-42
2021/07/21 00:35:45;;;;;;;0.75;0.73;;;27.10;74.00;;;;;;5105626;28;20028;-42
2021/07/21 00:38:12;;;;;;;1.20;1.10;;;27.10;74.00;;;;;;5105367;28;20805;-41
2021/07/21 00:40:38;;;;;;;0.85;0.77;;;27.10;74.00;;;;;;5105400;28;20131;-41
2021/07/21 00:43:04;;;;;;;1.00;0.90;;;27.10;73.90;;;;;;5105455;28;20024;-42
2021/07/21 00:45:30;;;;;;;1.35;0.90;;;27.10;73.90;;;;;;5105511;28;20083;-40
2021/07/21 00:47:56;;;;;;;1.20;1.10;;;27.10;74.00;;;;;;5105048;28;20477;-40
2021/07/21 00:50:23;;;;;;;1.02;0.90;;;27.10;74.00;;;;;;5105102;28;20284;-41
2021/07/21 00:52:49;;;;;;;1.00;0.90;;;27.10;74.00;;;;;;5105148;28;20024;-42
2021/07/21 00:55:15;;;;;;;1.20;1.08;;;27.10;74.00;;;;;;5070278;28;20425;-41
2021/07/21 00:57:42;;;;;;;0.70;0.70;;;27.10;74.00;;;;;;5105103;28;20052;-42
2021/07/21 01:00:10;;;;;;;0.90;0.82;;;27.10;74.00;;;;;;5105075;28;20678;-42
2021/07/21 01:02:36;;;;;;;1.05;0.98;;;27.10;74.10;;;;;;5104766;28;20024;-41
2021/07/21 01:05:14;;;;;;;0.97;0.87;;;27.10;74.10;;;;;;5104962;28;20035;-41
2021/07/21 01:07:43;;;;;;;0.82;0.82;;;27.10;74.10;;;;;;5104528;28;20032;-42
2021/07/21 01:10:09;;;;;;;1.20;0.93;;;27.10;74.00;;;;;;5104486;28;20039;-42
2021/07/21 01:12:58;;;;;;;1.02;0.88;;;27.10;74.10;;;;;;5104951;28;20111;-42
2021/07/21 01:15:38;;;;;;;0.80;0.80;;;27.10;74.10;;;;;;5085704;28;20197;-41
2021/07/21 01:18:11;;;;;;;1.20;1.00;;;27.00;74.00;;;;;;5087240;28;20024;-41
2021/07/21 01:20:56;;;;;;;1.00;0.80;;;27.10;74.10;;;;;;5086857;28;20034;-41
2021/07/21 01:23:22;;;;;;;2.22;0.80;;;27.00;74.00;;;;;;5104266;28;20042;-41
2021/07/21 01:26:06;;;;;;;1.33;0.80;;;27.00;74.10;;;;;;5104748;28;20024;-42
2021/07/21 01:28:32;;;;;;;1.67;0.90;;;27.00;74.10;;;;;;5087184;28;20032;-42
2021/07/21 01:30:59;;;;;;;0.77;0.73;;;27.00;74.10;;;;;;5069383;28;20099;-42
2021/07/21 01:33:26;;;;;;;0.68;0.65;;;27.00;74.10;;;;;;5086197;28;20028;-42
2021/07/21 01:35:55;;;;;;;1.20;0.80;;;27.00;74.10;;;;;;5086062;28;20032;-41
2021/07/21 01:38:40;;;;;;;1.10;1.00;;;27.00;74.10;;;;;;5104319;28;20035;-42
2021/07/21 01:41:12;;;;;;;1.77;0.98;;;27.00;74.10;;;;;;5085969;28;20020;-41
2021/07/21 01:43:38;;;;;;;1.27;1.02;;;27.00;74.10;;;;;;5086517;28;20027;-42
2021/07/21 01:46:05;;;;;;;1.15;0.80;;;27.00;74.10;;;;;;5069503;28;20055;-42
2021/07/21 01:48:32;;;;;;;1.17;1.07;;;26.90;74.10;;;;;;5085799;28;20488;-42
2021/07/21 01:50:59;;;;;;;2.47;1.02;;;26.90;74.00;;;;;;5068986;28;20288;-42
2021/07/21 01:53:25;;;;;;;1.10;1.00;;;26.90;74.00;;;;;;5085866;28;20527;-42
2021/07/21 01:55:52;;;;;;;1.15;0.93;;;26.90;74.10;;;;;;5069123;28;20055;-42
2021/07/21 01:58:19;;;;;;;1.87;1.00;;;26.90;74.00;;;;;;5069068;28;20062;-42
2021/07/21 02:00:46;;;;;;;1.00;0.77;;;26.90;74.10;;;;;;5085313;28;20035;-42
2021/07/21 02:03:12;;;;;;;1.73;0.88;;;26.90;74.10;;;;;;5068988;28;20043;-42
2021/07/21 02:05:38;;;;;;;0.77;0.77;;;26.90;74.10;;;;;;5065509;28;20033;-42
2021/07/21 02:08:05;;;;;;;0.93;0.83;;;26.90;74.10;;;;;;5075195;28;20322;-42
2021/07/21 02:10:31;;;;;;;0.80;0.80;;;26.90;74.20;;;;;;5103407;28;20039;-42
2021/07/21 02:13:03;;;;;;;3.13;0.80;;;26.90;74.20;;;;;;5085334;28;20024;-42
2021/07/21 02:15:29;;;;;;;1.45;0.70;;;26.80;74.00;;;;;;5103628;28;20028;-41
2021/07/21 02:17:55;;;;;;;2.25;0.85;;;26.80;74.00;;;;;;5085278;28;20046;-42
2021/07/21 02:20:21;;;;;;;1.43;0.73;;;26.80;74.70;;;;;;5068304;28;20055;-42
2021/07/21 02:22:48;;;;;;;0.90;0.80;;;26.80;74.00;;;;;;5068704;28;20076;-42
2021/07/21 02:25:14;;;;;;;0.97;0.83;;;26.80;74.00;;;;;;5085150;28;20061;-42
2021/07/21 02:27:40;;;;;;;1.33;1.00;;;26.80;74.00;;;;;;5085180;28;20264;-42
2021/07/21 02:30:08;;;;;;;1.23;0.75;;;26.80;74.00;;;;;;5084859;28;20032;-41
2021/07/21 02:32:41;;;;;;;1.10;0.70;;;26.80;74.00;;;;;;5085009;28;20074;-42
2021/07/21 02:35:07;;;;;;;1.85;0.77;;;26.80;74.00;;;;;;5085136;28;20085;-42
2021/07/21 02:37:33;;;;;;;1.77;1.10;;;26.80;74.00;;;;;;5103414;28;20384;-41
2021/07/21 02:39:59;;;;;;;1.00;0.90;;;26.80;74.00;;;;;;5103120;28;20032;-41
2021/07/21 02:42:26;;;;;;;0.73;0.73;;;26.70;73.80;;;;;;5103284;28;20115;-42
2021/07/21 02:44:52;;;;;;;0.93;0.70;;;26.70;73.80;;;;;;5103367;28;20023;-41
2021/07/21 02:47:19;;;;;;;1.08;0.88;;;26.80;73.90;;;;;;5085000;28;20041;-42
2021/07/21 02:49:49;;;;;;;0.85;0.68;;;26.70;73.80;;;;;;5102874;28;20043;-40
2021/07/21 02:52:44;;;;;;;1.48;0.70;;;26.70;73.90;;;;;;5084898;28;20028;-41
2021/07/21 02:55:21;;;;;;;0.63;0.60;;;26.70;73.80;;;;;;5080115;28;20103;-41
2021/07/21 02:57:50;;;;;;;0.80;0.80;;;26.70;73.80;;;;;;5084712;28;20082;-42
2021/07/21 03:00:21;;;;;;;1.10;1.00;;;26.70;73.90;;;;;;5084599;28;20500;-42
2021/07/21 03:02:49;;;;;;;0.80;0.80;;;26.70;73.80;;;;;;5102611;28;20024;-41
2021/07/21 03:05:17;;;;;;;1.02;0.77;;;26.70;73.90;;;;;;5084815;28;20024;-42
2021/07/21 03:07:58;;;;;;;1.40;0.80;;;26.70;73.90;;;;;;5084700;28;20020;-41
2021/07/21 03:10:24;;;;;;;0.95;0.70;;;26.70;73.90;;;;;;5093934;28;20036;-41
2021/07/21 03:13:01;;;;;;;0.93;0.77;;;26.60;73.80;;;;;;5084250;28;20038;-41
2021/07/21 03:15:36;;;;;;;1.85;0.70;;;26.60;73.80;;;;;;5102908;28;20404;-42
2021/07/21 03:18:02;;;;;;;1.55;0.75;;;26.60;73.80;;;;;;5068653;28;20032;-42
2021/07/21 03:20:28;;;;;;;0.70;0.70;;;26.60;73.60;;;;;;5084569;28;20050;-42
2021/07/21 03:22:55;;;;;;;0.80;0.70;;;26.60;73.70;;;;;;5102683;28;20040;-41
2021/07/21 03:25:22;;;;;;;;;;;26.60;73.50;;;;;;5068387;28;20036;-41
2021/07/21 03:27:49;;;;;;;1.30;0.80;;;26.60;73.60;;;;;;5102489;28;19915;-40
2021/07/21 03:30:15;;;;;;;0.80;0.73;;;26.60;73.40;;;;;;5084505;28;20036;-42
2021/07/21 03:32:43;;;;;;;3.17;0.90;;;26.60;73.60;;;;;;5084476;28;20031;-42
2021/07/21 03:35:08;;;;;;;;;;;26.60;73.60;;;;;;5103216;28;20296;-41
2021/07/21 03:37:35;;;;;;;1.65;0.77;;;26.60;73.50;;;;;;5085773;28;19908;-42
2021/07/21 03:40:03;;;;;;;0.70;0.50;;;26.50;73.40;;;;;;5088382;28;20031;-41
2021/07/21 03:42:29;;;;;;;0.80;0.70;;;26.60;73.50;;;;;;5106541;28;20032;-40
2021/07/21 03:44:58;;;;;;;1.05;0.70;;;26.50;73.50;;;;;;5088089;28;20111;-42
2021/07/21 03:47:24;;;;;;;1.00;0.60;;;26.50;73.50;;;;;;5087576;28;20016;-41
2021/07/21 03:49:51;;;;;;;1.85;1.02;;;26.50;73.40;;;;;;5106100;28;20028;-41
2021/07/21 03:52:17;;;;;;;1.70;0.70;;;26.50;73.60;;;;;;5071627;28;20040;-41
2021/07/21 03:54:44;;;;;;;1.10;0.80;;;26.50;73.50;;;;;;5071428;28;20123;-42
2021/07/21 03:57:10;;;;;;;0.85;0.82;;;26.50;73.60;;;;;;5087829;28;20035;-41
2021/07/21 03:59:37;;;;;;;1.53;0.70;;;26.50;73.60;;;;;;5071501;28;20082;-42
2021/07/21 04:02:04;;;;;;;0.95;0.75;;;26.50;73.50;;;;;;5088023;28;20039;-41
2021/07/21 04:04:30;;;;;;;1.52;0.82;;;26.50;73.60;;;;;;5087528;28;20024;-41
2021/07/21 04:06:57;;;;;;;2.00;0.63;;;26.50;73.60;;;;;;5067594;28;20036;-42
2021/07/21 04:09:24;;;;;;;0.60;0.60;;;26.50;73.60;;;;;;5101137;28;20028;-42
2021/07/21 04:11:51;;;;;;;1.27;0.70;;;26.40;73.60;;;;;;5071123;28;20040;-42
2021/07/21 04:14:17;;;;;;;;;;;26.40;73.40;;;;;;5071675;28;20024;-41
2021/07/21 04:16:43;;;;;;;1.88;0.60;;;26.40;73.30;;;;;;5106002;28;19949;-42
2021/07/21 04:19:10;;;;;;;1.40;0.87;;;26.40;73.40;;;;;;5105712;28;20596;-41
2021/07/21 04:21:40;;;;;;;2.15;0.70;;;26.40;73.40;;;;;;5105637;28;20043;-42
2021/07/21 04:24:08;;;;;;;0.90;0.88;;;26.40;73.20;;;;;;5105402;28;20028;-42
2021/07/21 04:26:35;;;;;;;0.60;0.60;;;26.40;73.40;;;;;;5071085;28;20028;-42
2021/07/21 04:29:01;;;;;;;0.57;0.57;;;26.40;73.50;;;;;;5070621;28;20031;-42
2021/07/21 04:31:27;;;;;;;0.93;0.60;;;26.40;73.30;;;;;;5087261;28;20497;-41
2021/07/21 04:33:56;;;;;;;1.33;0.90;;;26.40;73.30;;;;;;5087117;28;20034;-41
2021/07/21 04:36:23;;;;;;;1.25;0.77;;;26.40;73.30;;;;;;5105345;28;20035;-42
2021/07/21 04:38:49;;;;;;;;;;;26.40;73.30;;;;;;5071164;28;20032;-42
2021/07/21 04:41:16;;;;;;;0.60;0.60;;;26.40;73.40;;;;;;5105555;28;19911;-41
2021/07/21 04:43:42;;;;;;;3.28;0.90;;;26.40;73.30;;;;;;5086833;28;20092;-40
2021/07/21 04:46:09;;;;;;;0.90;0.68;;;26.30;73.20;;;;;;5087166;28;20057;-41
2021/07/21 04:48:38;;;;;;;0.82;0.60;;;26.30;73.30;;;;;;5069805;28;20024;-42
2021/07/21 04:51:04;;;;;;;0.80;0.70;;;26.30;73.40;;;;;;5069676;28;20865;-46
2021/07/21 04:53:31;;;;;;;1.35;0.63;;;26.30;73.40;;;;;;5070156;28;20024;-41
2021/07/21 04:55:57;;;;;;;0.68;0.52;;;26.30;73.40;;;;;;5086890;28;20051;-42
2021/07/21 04:58:24;;;;;;;1.92;0.80;;;26.30;73.50;;;;;;5104781;28;20070;-42
2021/07/21 05:00:52;;;;;;;1.20;0.60;;;26.30;73.60;;;;;;5105162;28;20400;-42
2021/07/21 05:03:22;;;;;;;3.25;0.63;;;26.30;73.60;;;;;;5104370;28;20024;-41
2021/07/21 05:05:48;;;;;;;0.98;0.55;;;26.30;73.70;;;;;;5104608;28;20039;-41
2021/07/21 05:08:14;;;;;;;0.90;0.60;;;26.30;73.60;;;;;;5086722;28;20071;-42
2021/07/21 05:10:46;;;;;;;1.00;0.67;;;26.20;73.60;;;;;;5086743;28;20035;-41
2021/07/21 05:13:12;;;;;;;1.42;0.80;;;26.20;73.50;;;;;;5104819;28;20024;-42
2021/07/21 05:15:44;;;;;;;0.52;0.50;;;26.30;73.50;;;;;;5104444;28;20032;-42
2021/07/21 05:18:11;;;;;;;0.85;0.60;;;26.20;73.40;;;;;;5104512;28;20042;-41
2021/07/21 05:20:37;;;;;;;0.60;0.60;;;26.20;73.40;;;;;;5104530;28;20017;-41
2021/07/21 05:23:05;;;;;;;1.80;0.65;;;26.20;73.40;;;;;;5104672;28;20042;-40
2021/07/21 05:25:31;;;;;;;0.60;0.60;;;26.20;73.40;;;;;;5104463;28;20016;-42
2021/07/21 05:27:57;;;;;;;0.60;0.60;;;26.20;73.40;;;;;;5104238;28;20024;-42
2021/07/21 05:30:23;;;;;;;2.07;0.70;;;26.20;73.30;;;;;;5104600;28;20123;-42
2021/07/21 05:32:49;;;;;;;1.20;0.60;;;26.20;73.30;;;;;;5104514;28;20027;-42
2021/07/21 05:35:15;;;;;;;1.52;0.70;;;26.20;73.30;;;;;;5103882;28;20124;-41
2021/07/21 05:37:42;;;;;;;0.85;0.70;;;26.20;73.40;;;;;;5104468;28;20223;-42
2021/07/21 05:40:08;;;;;;;1.47;0.70;;;26.20;73.40;;;;;;5104418;28;20039;-42
2021/07/21 05:42:34;;;;;;;1.90;0.52;;;26.20;73.40;;;;;;5086033;28;20042;-42
2021/07/21 05:45:00;;;;;;;1.63;0.82;;;26.20;73.30;;;;;;5104063;28;20122;-41
2021/07/21 05:47:26;;;;;;;0.88;0.65;;;26.20;73.40;;;;;;5104197;28;20043;-41
2021/07/21 05:49:53;;;;;;;0.63;0.63;;;26.20;73.30;;;;;;5085819;28;20058;-41
2021/07/21 05:52:19;;;;;;;0.85;0.73;;;26.10;73.30;;;;;;5104133;28;20039;-42
2021/07/21 05:54:45;;;;;;;0.70;0.50;;;26.10;73.40;;;;;;5104095;28;20034;-42
2021/07/21 05:57:11;;;;;;;0.70;0.63;;;26.10;73.40;;;;;;5103760;28;20020;-42
2021/07/21 05:59:37;;;;;;;1.70;0.70;;;26.10;73.40;;;;;;5103989;28;20039;-42
2021/07/21 06:02:03;;;;;;;1.13;0.67;;;26.10;73.50;;;;;;5103512;28;20032;-42
2021/07/21 06:04:30;;;;;;;0.63;0.63;;;26.10;73.60;;;;;;5103749;28;20046;-42
2021/07/21 06:06:56;;;;;;;0.90;0.60;;;26.10;73.60;;;;;;5103567;28;20024;-41
2021/07/21 06:09:23;;;;;;;0.60;0.60;;;26.10;73.60;;;;;;5103775;28;20047;-42
2021/07/21 06:11:50;;;;;;;0.65;0.65;;;26.10;73.60;;;;;;5103866;28;20580;-42
2021/07/21 06:14:16;;;;;;;1.20;0.63;;;26.10;73.60;;;;;;5103762;28;20071;-42
2021/07/21 06:16:43;;;;;;;0.68;0.68;;;26.10;73.50;;;;;;5085028;28;20680;-41
2021/07/21 06:19:09;;;;;;;0.73;0.70;;;26.10;73.40;;;;;;5103755;28;20032;-41
2021/07/21 06:21:35;;;;;;;0.50;0.50;;;26.10;73.40;;;;;;5103292;28;20405;-41
2021/07/21 06:24:01;;;;;;;0.70;0.60;;;26.10;73.40;;;;;;5103560;28;20389;-41
2021/07/21 06:26:28;;;;;;;1.33;0.80;;;26.10;73.50;;;;;;5103256;28;20055;-42
2021/07/21 06:28:54;;;;;;;1.58;0.60;;;26.10;73.40;;;;;;5103469;28;20809;-41
2021/07/21 06:31:20;;;;;;;0.65;0.65;;;26.10;73.50;;;;;;5103486;28;20051;-42
2021/07/21 06:33:46;;;;;;;1.95;0.77;;;26.10;73.40;;;;;;5103153;28;20034;-42
2021/07/21 06:36:14;;;;;;;0.70;0.63;;;26.10;73.40;;;;;;5103029;28;20024;-42
2021/07/21 06:38:40;;;;;;;0.60;0.60;;;26.00;73.40;;;;;;5103512;28;20024;-41
2021/07/21 06:41:06;;;;;;;0.65;0.60;;;26.00;73.30;;;;;;5103419;28;20028;-42
2021/07/21 06:43:32;;;;;;;0.53;0.50;;;26.00;73.30;;;;;;5103312;28;20024;-43
2021/07/21 06:45:58;;;;;;;2.15;0.68;;;26.00;73.40;;;;;;5103352;28;20448;-41
2021/07/21 06:48:24;;;;;;;0.60;0.60;;;26.00;73.40;;;;;;5103181;28;20024;-40
2021/07/21 06:50:50;;;;;;;0.60;0.60;;;26.00;73.40;;;;;;5084841;28;20044;-41
2021/07/21 06:53:17;;;;;;;1.30;0.65;;;26.00;73.40;;;;;;5103273;28;20023;-42
2021/07/21 06:55:43;;;;;;;1.20;0.80;;;26.00;73.40;;;;;;5102607;28;20035;-42
2021/07/21 06:58:09;;;;;;;0.50;0.50;;;26.00;73.40;;;;;;5103140;28;20067;-42
2021/07/21 07:00:35;;;;;;;0.70;0.50;;;26.00;73.40;;;;;;5103138;28;20032;-41
2021/07/21 07:03:01;;;;;;;0.80;0.63;;;26.00;73.40;;;;;;5103046;28;20023;-40
2021/07/21 07:05:28;;;;;;;1.47;0.70;;;25.90;73.40;;;;;;5102874;28;20028;-42
2021/07/21 07:07:54;;;;;;;0.70;0.70;;;25.90;73.40;;;;;;5102811;28;20028;-42
2021/07/21 07:10:20;;;;;;;2.85;0.75;;;25.90;73.50;;;;;;5103037;28;20028;-41
2021/07/21 07:12:47;;;;;;;2.03;0.65;;;25.90;73.40;;;;;;5104572;28;20024;-41
2021/07/21 07:15:13;;;;;;;;;;;25.90;73.40;;;;;;5107408;28;20040;-42
2021/07/21 07:17:39;;;;;;;0.88;0.60;;;25.90;73.40;;;;;;5106845;28;19915;-42
2021/07/21 07:20:06;;;;;;;2.67;0.85;;;25.90;73.40;;;;;;5106793;28;20082;-42
2021/07/21 07:22:32;;;;;;;0.70;0.70;;;25.90;73.40;;;;;;5107222;28;20039;-40
2021/07/21 07:25:00;;;;;;;0.65;0.65;;;25.90;73.40;;;;;;5106870;28;20031;-41
2021/07/21 07:27:28;;;;;;;0.73;0.52;;;25.90;73.40;;;;;;5106756;28;20024;-40
2021/07/21 07:29:54;;;;;;;0.65;0.65;;;25.90;73.40;;;;;;5106912;28;20077;-42
2021/07/21 07:32:20;;;;;;;2.30;0.75;;;25.90;73.40;;;;;;5106821;28;20101;-42
2021/07/21 07:34:46;;;;;;;0.75;0.75;;;25.90;73.40;;;;;;5106796;28;20052;-41
2021/07/21 07:37:13;;;;;;;1.00;0.70;;;25.80;73.30;;;;;;5106581;28;20028;-42
2021/07/21 07:39:39;;;;;;;2.67;0.80;;;25.80;73.30;;;;;;5088753;28;20543;-41
2021/07/21 07:42:06;;;;;;;0.63;0.60;;;25.80;73.40;;;;;;5106709;28;20051;-42
2021/07/21 07:44:32;;;;;;;0.63;0.63;;;25.80;73.30;;;;;;5106845;28;20129;-42
2021/07/21 07:46:58;;;;;;;0.80;0.70;;;25.80;73.30;;;;;;5106528;28;20384;-42
2021/07/21 07:49:24;;;;;;;1.00;0.90;;;25.80;73.40;;;;;;5106486;28;20140;-41
2021/07/21 07:51:51;;;;;;;0.90;0.70;;;25.80;73.30;;;;;;5106498;28;20277;-41
2021/07/21 07:54:18;;;;;;;0.57;0.57;;;25.80;73.40;;;;;;5106350;28;20028;-41
2021/07/21 07:56:45;;;;;;;1.45;0.80;;;25.80;73.30;;;;;;5106104;28;20051;-42
2021/07/21 07:59:11;;;;;;;1.17;1.00;;;25.80;73.40;;;;;;5103188;28;20040;-42
2021/07/21 08:01:37;;;;;;;0.80;0.60;;;25.80;73.50;;;;;;5106269;28;20046;-42
2021/07/21 08:04:04;;;;;;;0.90;0.70;;;25.80;73.40;;;;;;5106260;28;20027;-41
2021/07/21 08:06:30;;;;;;;1.10;0.80;;;25.80;73.40;;;;;;5106383;28;20088;-42
2021/07/21 08:08:56;;;;;;;1.10;0.63;;;25.80;73.50;;;;;;5105987;28;20035;-42
2021/07/21 08:11:22;;;;;;;0.68;0.68;;;25.80;73.40;;;;;;5106343;28;20051;-40
2021/07/21 08:13:48;;;;;;;0.80;0.80;;;25.80;74.20;;;;;;5106262;28;20503;-42
2021/07/21 08:16:14;;;;;;;0.70;0.60;;;25.80;73.40;;;;;;5106165;28;20032;-41
2021/07/21 08:18:41;;;;;;;0.97;0.63;;;25.80;73.50;;;;;;5105879;28;20020;-41
2021/07/21 08:21:07;;;;;;;0.75;0.60;;;25.80;73.50;;;;;;5105926;28;20020;-42
2021/07/21 08:23:33;;;;;;;1.30;0.60;;;25.80;73.40;;;;;;5105835;28;20039;-41
2021/07/21 08:25:59;;;;;;;0.60;0.60;;;25.80;73.50;;;;;;5106190;28;20051;-41
2021/07/21 08:28:25;;;;;;;1.67;0.80;;;25.70;73.30;;;;;;5105784;28;20267;-40
2021/07/21 08:30:52;;;;;;;0.73;0.70;;;25.70;73.40;;;;;;5105715;28;20036;-42
2021/07/21 08:33:18;;;;;;;2.53;0.80;;;25.80;73.50;;;;;;5105986;28;20024;-41
2021/07/21 08:35:44;;;;;;;0.98;0.70;;;25.70;73.40;;;;;;5105740;28;20272;-41
2021/07/21 08:38:11;;;;;;;0.98;0.85;;;25.70;73.50;;;;;;5105552;28;20020;-41
2021/07/21 08:40:37;;;;;;;0.70;0.70;;;25.70;73.40;;;;;;5105756;28;20115;-40
2021/07/21 08:43:10;;;;;;;1.95;0.95;;;25.70;73.40;;;;;;5105870;28;20028;-41
2021/07/21 08:45:36;;;;;;;0.68;0.50;;;25.70;73.50;;;;;;5105545;28;20042;-43
2021/07/21 08:48:03;;;;;;;0.83;0.57;;;25.70;73.40;;;;;;5087193;28;20028;-42
2021/07/21 08:50:29;;;;;;;;;;;25.70;73.40;;;;;;5105876;28;20032;-41
2021/07/21 08:52:56;;;;;;;0.63;0.63;;;25.70;73.50;;;;;;5105326;28;19904;-42
2021/07/21 08:55:23;;;;;;;1.10;0.73;;;25.70;73.50;;;;;;5105463;28;20031;-42
2021/07/21 08:57:50;;;;;;;2.50;0.82;;;25.70;73.60;;;;;;5087020;28;20068;-42
2021/07/21 09:00:16;;;;;;;1.52;0.70;;;25.60;73.40;;;;;;5105291;28;20034;-42
2021/07/21 09:02:43;;;;;;;1.45;0.70;;;25.60;73.50;;;;;;5087256;28;20028;-42
2021/07/21 09:05:10;;;;;;;0.60;0.60;;;25.60;73.50;;;;;;5105102;28;20496;-41
2021/07/21 09:07:40;;;;;;;2.35;0.80;;;25.60;73.50;;;;;;5086758;28;20020;-41
2021/07/21 09:10:10;;;;;;;0.80;0.80;;;25.70;74.20;;;;;;5086566;28;20047;-42
2021/07/21 09:12:37;;;;;;;1.02;0.88;;;25.60;73.50;;;;;;5104904;28;20020;-42
2021/07/21 09:15:04;;;;;;;;;;;25.60;73.50;;;;;;5104432;28;20024;-42
2021/07/21 09:17:31;;;;;;;0.85;0.60;;;25.60;73.50;;;;;;5104802;28;19915;-39
2021/07/21 09:19:57;;;;;;;0.70;0.70;;;25.60;73.50;;;;;;5105010;28;20036;-41
2021/07/21 09:22:35;;;;;;;0.90;0.70;;;25.60;73.50;;;;;;5104761;28;20028;-41
2021/07/21 09:25:12;;;;;;;0.88;0.70;;;25.60;73.50;;;;;;5104738;28;20257;-42
2021/07/21 09:27:39;;;;;;;0.70;0.70;;;25.60;73.50;;;;;;5104714;28;20045;-40
2021/07/21 09:30:08;;;;;;;1.27;0.77;;;25.60;73.60;;;;;;5104727;28;20046;-41
2021/07/21 09:32:57;;;;;;;0.70;0.68;;;25.60;73.60;;;;;;5104893;28;20032;-42
2021/07/21 09:35:25;;;;;;;2.58;0.70;;;25.60;73.60;;;;;;5090452;28;20020;-41
2021/07/21 09:37:51;;;;;;;1.42;0.80;;;25.60;73.60;;;;;;5104186;28;20028;-41
2021/07/21 09:40:17;;;;;;;0.80;0.80;;;25.60;73.60;;;;;;5104637;28;20039;-42
2021/07/21 09:42:44;;;;;;;1.40;0.85;;;25.60;73.60;;;;;;5104699;28;20031;-42
2021/07/21 09:45:14;;;;;;;1.27;0.70;;;25.60;73.50;;;;;;5104768;28;20028;-42
2021/07/21 09:47:58;;;;;;;1.48;0.80;;;25.50;73.50;;;;;;5104547;28;20511;-42
2021/07/21 09:50:26;;;;;;;0.90;0.65;;;25.50;73.50;;;;;;5104101;28;20044;-42
2021/07/21 09:52:57;;;;;;;1.23;0.60;;;25.50;73.50;;;;;;5103893;28;20034;-42
2021/07/21 09:55:24;;;;;;;1.50;0.70;;;25.50;73.50;;;;;;5104417;28;20039;-42
2021/07/21 09:58:02;;;;;;;1.25;0.70;;;25.50;73.50;;;;;;5104239;28;20145;-42
2021/07/21 10:00:30;;;;;;;1.17;1.00;;;25.50;73.60;;;;;;5104306;28;20483;-41
2021/07/21 10:03:11;;;;;;;1.20;0.70;;;25.50;73.50;;;;;;5084908;28;20126;-42
2021/07/21 10:06:01;;;;;;;2.47;0.80;;;25.50;73.60;;;;;;5092606;28;20055;-41
2021/07/21 10:08:29;;;;;;;1.30;0.65;;;25.50;73.50;;;;;;5103950;28;20028;-40
2021/07/21 10:10:56;;;;;;;1.38;0.77;;;25.50;73.60;;;;;;5104110;28;20054;-42
2021/07/21 10:13:22;;;;;;;0.60;0.60;;;25.50;73.60;;;;;;5103975;28;20101;-42
2021/07/21 10:15:49;;;;;;;0.97;0.87;;;25.50;73.50;;;;;;5104235;28;20036;-41
2021/07/21 10:18:16;;;;;;;0.75;0.60;;;25.50;73.50;;;;;;5103780;28;20027;-41
2021/07/21 10:20:44;;;;;;;1.88;0.88;;;25.40;73.50;;;;;;5103859;28;20046;-42
2021/07/21 10:23:12;;;;;;;0.80;0.60;;;25.40;73.60;;;;;;5085318;28;20017;-42
2021/07/21 10:25:38;;;;;;;0.82;0.82;;;25.40;73.60;;;;;;5103918;28;20035;-42
2021/07/21 10:28:05;;;;;;;1.38;0.70;;;25.40;73.60;;;;;;5103945;28;20627;-42
2021/07/21 10:30:34;;;;;;;0.82;0.77;;;25.40;73.60;;;;;;5103615;28;20028;-41
2021/07/21 10:33:01;;;;;;;1.58;0.70;;;25.40;73.60;;;;;;5103595;28;20038;-42
2021/07/21 10:35:28;;;;;;;0.83;0.70;;;25.40;73.70;;;;;;5103705;28;20024;-41
2021/07/21 10:37:54;;;;;;;2.70;1.25;;;25.40;73.60;;;;;;5103575;28;20054;-42
2021/07/21 10:40:25;;;;;;;1.07;0.83;;;25.40;73.60;;;;;;5103557;28;20577;-42
2021/07/21 10:42:53;;;;;;;0.98;0.80;;;25.40;73.60;;;;;;5103561;28;20051;-41
2021/07/21 10:45:20;;;;;;;1.52;0.93;;;25.40;73.70;;;;;;5103489;28;20035;-42
2021/07/21 10:47:51;;;;;;;1.50;0.75;;;25.40;73.70;;;;;;5103420;28;20103;-42
2021/07/21 10:51:01;;;;;;;0.95;0.80;;;25.40;73.80;;;;;;5103099;28;20036;-42
2021/07/21 10:53:40;;;;;;;1.00;0.70;;;25.40;73.70;;;;;;5103241;28;20074;-41
2021/07/21 10:59:17;;;;;;;0.75;0.68;;;25.40;73.70;;;;;;5103069;28;20059;-41
2021/07/21 11:01:45;;;;;;;0.70;0.60;;;25.30;73.60;;;;;;5103135;28;20088;-42
2021/07/21 11:04:11;;;;;;;2.28;0.85;;;25.30;73.60;;;;;;5103365;28;20020;-42
2021/07/21 11:06:38;;;;;;;0.70;0.70;;;25.30;73.60;;;;;;5084982;28;20397;-41
2021/07/21 11:09:23;;;;;;;0.63;0.63;;;25.30;73.70;;;;;;5102936;28;20506;-40
2021/07/21 11:11:59;;;;;;;0.80;0.73;;;25.30;73.60;;;;;;5103167;28;20127;-42
2021/07/21 11:14:30;;;;;;;0.90;0.70;;;25.30;73.60;;;;;;5103344;28;20023;-41
2021/07/21 11:17:09;;;;;;;1.42;0.98;;;25.30;73.60;;;;;;5102812;28;20060;-42
2021/07/21 11:19:45;;;;;;;0.95;0.60;;;25.30;73.70;;;;;;5102408;28;20030;-42
2021/07/21 11:22:33;;;;;;;1.35;0.70;;;25.30;73.60;;;;;;5082714;28;20021;-42
2021/07/21 11:25:16;;;;;;;0.90;0.63;;;25.30;73.70;;;;;;5082742;28;20031;-41
2021/07/21 11:27:47;;;;;;;1.77;0.80;;;25.30;73.70;;;;;;5082790;28;20064;-40
2021/07/21 11:30:45;;;;;;;1.15;0.70;;;25.30;73.80;;;;;;5082416;28;20092;-42
2021/07/21 11:33:49;;;;;;;1.15;0.80;;;25.20;73.70;;;;;;5082821;28;20063;-41
2021/07/21 11:36:40;;;;;;;0.77;0.70;;;25.30;73.80;;;;;;5096795;28;20032;-41
2021/07/21 11:39:07;;;;;;;0.63;0.63;;;25.20;73.70;;;;;;5102877;28;20039;-42
2021/07/21 11:41:49;;;;;;;1.10;0.80;;;25.20;73.60;;;;;;5102783;28;20031;-42
2021/07/21 11:44:27;;;;;;;0.70;0.60;;;25.20;73.60;;;;;;5102940;28;20032;-42
2021/07/21 11:46:53;;;;;;;1.23;0.90;;;25.20;73.70;;;;;;5102707;28;20036;-42
2021/07/21 11:49:24;;;;;;;2.30;0.82;;;25.20;73.70;;;;;;5102802;28;20128;-41
2021/07/21 11:51:52;;;;;;;0.80;0.80;;;25.20;73.70;;;;;;5102111;28;20177;-41
2021/07/21 11:54:27;;;;;;;1.05;0.55;;;25.20;73.70;;;;;;5102825;28;20063;-42
2021/07/21 11:56:54;;;;;;;1.25;0.75;;;25.20;73.70;;;;;;5102693;28;20028;-42
2021/07/21 11:59:47;;;;;;;0.82;0.70;;;25.20;73.70;;;;;;5086661;28;20051;-42
2021/07/21 12:02:14;;;;;;;0.80;0.80;;;25.20;73.70;;;;;;5101700;28;20040;-41
2021/07/21 12:04:51;;;;;;;2.30;0.70;;;25.20;73.70;;;;;;5106619;28;20080;-42
2021/07/21 12:07:18;;;;;;;1.77;0.93;;;25.20;73.80;;;;;;5106490;28;20031;-42
2021/07/21 12:09:46;;;;;;;0.77;0.77;;;25.20;73.80;;;;;;5106418;28;20028;-41
2021/07/21 12:12:13;;;;;;;1.05;0.68;;;25.20;73.80;;;;;;5106041;28;20060;-42
2021/07/21 12:14:40;;;;;;;;;;;25.20;73.80;;;;;;5106906;28;20042;-42
2021/07/21 12:17:10;;;;;;;1.20;0.68;;;25.20;73.90;;;;;;5106302;28;19908;-42
2021/07/21 12:19:37;;;;;;;0.80;0.70;;;25.20;73.80;;;;;;5106130;28;20130;-41
2021/07/21 12:22:06;;;;;;;0.95;0.80;;;25.20;73.90;;;;;;5105820;28;20115;-41
2021/07/21 12:24:55;;;;;;;0.80;0.70;;;25.20;73.80;;;;;;5106102;28;20084;-42
2021/07/21 12:27:23;;;;;;;0.80;0.68;;;25.20;73.80;;;;;;5096113;28;20066;-41
2021/07/21 12:29:49;;;;;;;0.80;0.65;;;25.20;73.90;;;;;;5105820;28;20035;-40
2021/07/21 12:32:17;;;;;;;1.23;0.80;;;25.20;73.80;;;;;;5105786;28;20024;-41
2021/07/21 12:34:50;;;;;;;0.68;0.68;;;25.20;73.80;;;;;;5105853;28;20020;-42
2021/07/21 12:37:20;;;;;;;1.00;0.80;;;25.20;73.80;;;;;;5105795;28;20043;-41
2021/07/21 12:39:48;;;;;;;0.70;0.60;;;25.20;73.80;;;;;;5105891;28;20039;-42
2021/07/21 12:42:31;;;;;;;0.90;0.60;;;25.20;73.80;;;;;;5087453;28;20492;-41
2021/07/21 12:45:03;;;;;;;0.70;0.70;;;25.20;73.90;;;;;;5105844;28;20445;-42
2021/07/21 12:47:32;;;;;;;0.82;0.70;;;25.20;73.80;;;;;;5105716;28;20024;-41
2021/07/21 12:50:09;;;;;;;0.80;0.60;;;25.20;73.80;;;;;;5087238;28;20531;-41
2021/07/21 12:52:44;;;;;;;1.08;0.70;;;25.20;73.90;;;;;;5104966;28;20058;-41
2021/07/21 12:55:14;;;;;;;1.35;0.80;;;25.20;73.80;;;;;;5105360;28;20031;-42
2021/07/21 12:57:44;;;;;;;0.75;0.70;;;25.20;73.90;;;;;;5087039;28;20044;-42
2021/07/21 13:00:18;;;;;;;0.65;0.65;;;25.20;73.90;;;;;;5105487;28;20055;-42
2021/07/21 13:03:00;;;;;;;0.98;0.80;;;25.20;74.00;;;;;;5104936;28;20032;-41